Time;durP1;ratioP1;P1;durP2;ratioP2;P2;SDS_P1;SDS_P2;PMS_P1;PMS_P2;Temp;Humidity;BMP_temperature;BMP_pressure;BME280_temperature;BME280_humidity;BME280_pressure;Samples;Min_cycle;Max_cycle;Signal;HPM_P1;HPM_P2
2022/04/14 00:01:54;;;;;;;7.03;3.80;;;;;;;10.36;100.00;96165.84;5035749;28;20035;-79
2022/04/14 00:04:19;;;;;;;8.87;3.77;;;;;;;10.37;100.00;96167.53;5024687;28;20024;-77
2022/04/14 00:06:45;;;;;;;7.73;3.50;;;;;;;10.35;100.00;96167.66;5036802;28;20037;-78
2022/04/14 00:09:11;;;;;;;8.20;4.10;;;;;;;10.17;100.00;96163.47;5022638;28;20540;-78
2022/04/14 00:11:38;;;;;;;7.03;3.40;;;;;;;10.23;100.00;96165.44;5040361;28;20025;-76
2022/04/14 00:14:05;;;;;;;7.67;3.83;;;;;;;10.17;100.00;96166.91;5046875;28;20375;-76
2022/04/14 00:16:31;;;;;;;6.50;3.80;;;;;;;9.97;100.00;96173.41;5036910;28;20021;-78
2022/04/14 00:18:57;;;;;;;7.10;4.10;;;;;;;10.03;100.00;96164.91;5025251;28;20042;-77
2022/04/14 00:21:23;;;;;;;9.23;4.40;;;;;;;9.81;100.00;96163.63;5018272;28;20059;-79
2022/04/14 00:23:48;;;;;;;8.77;4.23;;;;;;;9.79;100.00;96169.06;5037528;28;20057;-76
2022/04/14 00:26:14;;;;;;;7.77;4.50;;;;;;;9.66;100.00;96169.47;5041651;28;20097;-77
2022/04/14 00:28:40;;;;;;;9.93;5.33;;;;;;;9.76;100.00;96171.13;5024409;28;20542;-77
2022/04/14 00:31:06;;;;;;;7.50;4.53;;;;;;;9.73;100.00;96180.16;5025943;28;20124;-78
2022/04/14 00:33:32;;;;;;;8.53;4.50;;;;;;;9.75;100.00;96180.81;5024771;28;20029;-79
2022/04/14 00:35:58;;;;;;;7.53;4.47;;;;;;;9.81;100.00;96182.00;5024061;28;20112;-77
2022/04/14 00:38:23;;;;;;;10.30;4.67;;;;;;;9.62;100.00;96183.03;5026358;28;20116;-77
2022/04/14 00:40:52;;;;;;;7.87;4.50;;;;;;;9.62;100.00;96175.16;5009406;28;20749;-77
2022/04/14 00:43:20;;;;;;;7.97;3.77;;;;;;;9.56;100.00;96174.00;5027560;28;20024;-78
2022/04/14 00:45:47;;;;;;;7.93;3.93;;;;;;;9.35;100.00;96171.69;5020570;28;20028;-77
2022/04/14 00:48:13;;;;;;;7.17;3.83;;;;;;;9.31;100.00;96174.78;5023377;28;20056;-78
2022/04/14 00:50:39;;;;;;;7.93;4.20;;;;;;;9.19;100.00;96168.97;5041021;28;20077;-77
2022/04/14 00:53:05;;;;;;;9.63;3.77;;;;;;;9.18;100.00;96172.56;5023419;28;20444;-77
2022/04/14 00:55:30;;;;;;;8.70;4.43;;;;;;;9.04;100.00;96170.47;5022249;28;20250;-78
2022/04/14 00:57:56;;;;;;;7.50;3.80;;;;;;;9.06;100.00;96173.78;5020353;28;20091;-77
2022/04/14 01:00:22;;;;;;;10.30;3.67;;;;;;;9.02;100.00;96178.50;5038723;28;20521;-77
2022/04/14 01:02:48;;;;;;;7.53;3.87;;;;;;;8.99;100.00;96173.56;5019960;28;20029;-78
2022/04/14 01:05:15;;;;;;;9.77;3.77;;;;;;;9.07;100.00;96168.38;5043052;28;20055;-77
2022/04/14 01:07:44;;;;;;;6.70;3.40;;;;;;;9.03;100.00;96172.28;5023476;28;20035;-77
2022/04/14 01:10:10;;;;;;;7.27;3.60;;;;;;;9.10;100.00;96175.94;5029269;28;20478;-77
2022/04/14 01:12:36;;;;;;;6.23;2.90;;;;;;;9.12;100.00;96173.16;5035769;28;20032;-77
2022/04/14 01:15:02;;;;;;;5.40;2.63;;;;;;;9.12;100.00;96176.63;5040809;28;20033;-77
2022/04/14 01:17:28;;;;;;;5.83;2.80;;;;;;;9.11;100.00;96180.22;5020773;28;20031;-77
2022/04/14 01:19:54;;;;;;;5.67;3.10;;;;;;;9.11;100.00;96180.22;5039618;28;20029;-77
2022/04/14 01:22:35;;;;;;;6.27;3.37;;;;;;;9.04;100.00;96180.97;5019428;28;20075;-77
2022/04/14 01:25:02;;;;;;;8.03;3.60;;;;;;;9.02;100.00;96188.16;5021182;28;20037;-77
2022/04/14 01:27:30;;;;;;;8.23;3.07;;;;;;;8.92;100.00;96190.84;5038882;28;20028;-78
2022/04/14 01:29:55;;;;;;;7.20;3.83;;;;;;;8.94;100.00;96187.09;5008238;28;20088;-76
2022/04/14 01:32:22;;;;;;;6.07;3.47;;;;;;;8.81;100.00;96201.56;5016411;28;20037;-77
2022/04/14 01:34:49;;;;;;;6.07;3.73;;;;;;;8.87;100.00;96200.97;5020334;28;20025;-77
2022/04/14 01:37:14;;;;;;;9.90;3.77;;;;;;;8.75;100.00;96205.59;5043213;28;20401;-77
2022/04/14 01:39:41;;;;;;;7.73;4.00;;;;;;;8.68;100.00;96207.16;5024881;28;20112;-78
2022/04/14 01:42:07;;;;;;;9.83;4.30;;;;;;;8.56;100.00;96222.28;5046136;28;20033;-76
2022/04/14 01:44:33;;;;;;;11.83;5.10;;;;;;;8.39;100.00;96213.44;5040027;28;20029;-77
2022/04/14 01:46:59;;;;;;;11.87;5.00;;;;;;;8.40;100.00;96224.72;5007488;28;20041;-77
2022/04/14 01:49:25;;;;;;;10.33;5.33;;;;;;;8.48;100.00;96220.41;5036051;28;20049;-79
2022/04/14 01:51:50;;;;;;;7.03;4.50;;;;;;;8.44;100.00;96228.69;5010988;28;20186;-77
2022/04/14 01:54:16;;;;;;;7.67;4.37;;;;;;;8.42;100.00;96221.00;5039615;28;20494;-77
2022/04/14 01:56:43;;;;;;;7.77;4.10;;;;;;;8.27;100.00;96227.66;5024522;28;20094;-76
2022/04/14 01:59:10;;;;;;;8.20;3.97;;;;;;;8.16;100.00;96235.72;5047879;28;20071;-78
2022/04/14 02:01:36;;;;;;;12.60;4.80;;;;;;;8.15;100.00;96229.66;5021674;28;20553;-78
2022/04/14 02:04:07;;;;;;;7.77;3.97;;;;;;;8.22;100.00;96230.72;5039979;28;20024;-77
2022/04/14 02:06:33;;;;;;;7.93;4.40;;;;;;;8.18;100.00;96231.13;5016761;28;20023;-76
2022/04/14 02:08:59;;;;;;;11.17;5.20;;;;;;;8.06;100.00;96234.91;5039683;28;20024;-77
2022/04/14 02:11:25;;;;;;;7.83;4.63;;;;;;;7.93;100.00;96228.19;5020226;28;20091;-77
2022/04/14 02:13:51;;;;;;;10.37;4.57;;;;;;;8.01;100.00;96227.47;5019933;28;20112;-77
2022/04/14 02:16:16;;;;;;;9.97;4.87;;;;;;;7.94;100.00;96226.41;5008213;28;20179;-77
2022/04/14 02:18:42;;;;;;;8.80;5.17;;;;;;;7.83;100.00;96227.41;5039648;28;20111;-77
2022/04/14 02:21:08;;;;;;;9.23;5.43;;;;;;;7.79;100.00;96224.25;5001795;28;20037;-77
2022/04/14 02:23:34;;;;;;;8.00;4.70;;;;;;;7.76;100.00;96229.75;5015029;28;20032;-77
2022/04/14 02:26:00;;;;;;;8.27;5.00;;;;;;;7.75;100.00;96227.31;5033215;28;20029;-77
2022/04/14 02:28:25;;;;;;;8.37;4.97;;;;;;;7.72;100.00;96227.59;5034834;28;20042;-77
2022/04/14 02:30:51;;;;;;;8.77;5.10;;;;;;;7.66;100.00;96233.38;5020121;28;20040;-77
2022/04/14 02:33:17;;;;;;;8.53;4.47;;;;;;;7.56;100.00;96233.38;5015438;28;20033;-77
2022/04/14 02:35:43;;;;;;;8.37;5.30;;;;;;;7.52;100.00;96229.41;5020770;28;20071;-77
2022/04/14 02:38:09;;;;;;;9.57;4.60;;;;;;;7.65;100.00;96234.34;5018453;28;21344;-77
2022/04/14 02:40:35;;;;;;;7.10;4.73;;;;;;;7.60;100.00;96242.59;5038547;28;20163;-78
2022/04/14 02:43:00;;;;;;;11.30;5.53;;;;;;;7.71;100.00;96239.84;5021449;28;20812;-77
2022/04/14 02:45:27;;;;;;;7.30;4.60;;;;;;;7.71;100.00;96242.47;5041438;28;20021;-77
2022/04/14 02:47:53;;;;;;;9.53;5.20;;;;;;;7.72;100.00;96245.91;5020616;28;20110;-77
2022/04/14 02:50:21;;;;;;;9.10;5.10;;;;;;;7.62;100.00;96247.72;5003665;28;20545;-77
2022/04/14 02:52:50;;;;;;;8.97;5.63;;;;;;;7.65;100.00;96248.25;5034488;28;20049;-78
2022/04/14 02:55:17;;;;;;;11.70;5.30;;;;;;;7.56;100.00;96243.84;5009237;28;20041;-79
2022/04/14 02:57:43;;;;;;;8.07;5.47;;;;;;;7.68;100.00;96247.97;5019340;28;20037;-77
2022/04/14 03:00:10;;;;;;;9.90;4.77;;;;;;;7.77;100.00;96246.28;5028011;28;20040;-78
2022/04/14 03:02:36;;;;;;;10.77;5.40;;;;;;;7.82;100.00;96248.50;5046354;28;20028;-78
2022/04/14 03:05:03;;;;;;;9.90;6.03;;;;;;;7.76;100.00;96245.47;5020406;28;20033;-77
2022/04/14 03:07:29;;;;;;;11.63;6.43;;;;;;;7.83;100.00;96252.75;5020608;28;20067;-78
2022/04/14 03:09:54;;;;;;;8.57;5.27;;;;;;;7.88;100.00;96248.75;5034519;28;20474;-77
2022/04/14 03:12:20;;;;;;;13.97;6.60;;;;;;;7.85;100.00;96256.06;5023326;28;20029;-77
2022/04/14 03:14:47;;;;;;;8.90;5.47;;;;;;;7.89;100.00;96254.81;5022889;28;20095;-78
2022/04/14 03:17:13;;;;;;;10.40;5.90;;;;;;;7.92;100.00;96257.16;5025909;28;20104;-77
2022/04/14 03:19:39;;;;;;;10.00;5.70;;;;;;;7.85;100.00;96253.47;5006745;28;20535;-77
2022/04/14 03:22:04;;;;;;;9.83;6.07;;;;;;;7.80;100.00;96257.31;5038866;28;20032;-77
2022/04/14 03:24:30;;;;;;;10.03;6.20;;;;;;;7.78;100.00;96253.19;5024518;28;20026;-77
2022/04/14 03:26:56;;;;;;;9.67;5.70;;;;;;;7.87;100.00;96260.19;5020558;28;20033;-77
2022/04/14 03:29:22;;;;;;;9.47;6.27;;;;;;;7.84;100.00;96265.69;5023898;28;20044;-78
2022/04/14 03:31:47;;;;;;;9.27;5.60;;;;;;;7.72;100.00;96264.22;5046136;28;20037;-77
2022/04/14 03:34:13;;;;;;;11.33;6.50;;;;;;;7.71;100.00;96262.56;5033075;28;20057;-77
2022/04/14 03:36:39;;;;;;;8.73;5.47;;;;;;;7.76;100.00;96266.41;5033540;28;20671;-77
2022/04/14 03:39:05;;;;;;;10.97;6.40;;;;;;;7.74;100.00;96267.50;5018812;28;20490;-77
2022/04/14 03:41:31;;;;;;;10.23;5.57;;;;;;;7.62;100.00;96259.00;5017269;28;21356;-77
2022/04/14 03:43:57;;;;;;;12.03;5.50;;;;;;;7.55;100.00;96263.97;5018503;28;20547;-76
2022/04/14 03:46:23;;;;;;;8.47;5.17;;;;;;;7.63;100.00;96260.66;5041643;28;20097;-76
2022/04/14 03:48:49;;;;;;;11.30;4.63;;;;;;;7.68;100.00;96268.91;5042548;28;20041;-77
2022/04/14 03:51:15;;;;;;;8.77;5.03;;;;;;;7.67;100.00;96263.81;5040527;28;20049;-78
2022/04/14 03:53:42;;;;;;;10.93;4.80;;;;;;;7.72;100.00;96261.59;5043856;28;20033;-77
2022/04/14 03:56:07;;;;;;;8.07;4.77;;;;;;;7.73;100.00;96266.69;5041081;28;20025;-77
2022/04/14 03:58:33;;;;;;;9.27;5.67;;;;;;;7.69;100.00;96269.75;5024174;28;20494;-78
2022/04/14 04:00:59;;;;;;;8.70;5.37;;;;;;;7.57;100.00;96269.06;5036856;28;20076;-78
2022/04/14 04:03:25;;;;;;;7.47;4.70;;;;;;;7.57;100.00;96275.09;5025661;28;20018;-76
2022/04/14 04:05:50;;;;;;;8.00;4.77;;;;;;;7.47;100.00;96269.06;5029138;28;20096;-77
2022/04/14 04:08:17;;;;;;;8.37;4.60;;;;;;;7.42;100.00;96273.06;5022058;28;20029;-77
2022/04/14 04:10:43;;;;;;;11.37;6.33;;;;;;;7.37;100.00;96272.66;5023359;28;20037;-77
2022/04/14 04:13:08;;;;;;;11.73;6.93;;;;;;;7.47;100.00;96265.63;5016415;28;20040;-77
2022/04/14 04:15:34;;;;;;;11.33;6.30;;;;;;;7.42;100.00;96278.31;5028851;28;20047;-77
2022/04/14 04:18:00;;;;;;;7.97;6.13;;;;;;;7.44;100.00;96281.59;5020698;28;20570;-77
2022/04/14 04:20:26;;;;;;;9.13;5.93;;;;;;;7.35;100.00;96280.66;5021263;28;20399;-77
2022/04/14 04:22:52;;;;;;;11.13;6.60;;;;;;;7.36;100.00;96274.44;5045057;28;20037;-79
2022/04/14 04:25:17;;;;;;;10.13;6.73;;;;;;;7.43;100.00;96279.94;5028068;28;21292;-79
2022/04/14 04:27:43;;;;;;;10.50;5.57;;;;;;;7.47;100.00;96281.31;5022732;28;20055;-79
2022/04/14 04:30:10;;;;;;;8.97;5.60;;;;;;;7.54;100.00;96290.25;5024600;28;21512;-79
2022/04/14 04:32:36;;;;;;;10.77;5.90;;;;;;;7.62;100.00;96290.41;5020963;28;20033;-80
2022/04/14 04:35:04;;;;;;;11.37;5.87;;;;;;;7.60;100.00;96289.72;5021117;28;20842;-79
2022/04/14 04:37:30;;;;;;;12.17;6.70;;;;;;;7.60;100.00;96294.94;5038365;28;20124;-79
2022/04/14 04:39:56;;;;;;;10.13;6.00;;;;;;;7.59;100.00;96301.16;5020208;28;20032;-80
2022/04/14 04:42:22;;;;;;;13.50;5.80;;;;;;;7.58;100.00;96294.28;5007831;28;20957;-77
2022/04/14 04:44:48;;;;;;;10.80;5.70;;;;;;;7.61;100.00;96293.16;5007354;28;20036;-77
2022/04/14 04:47:13;;;;;;;11.00;5.67;;;;;;;7.66;100.00;96302.25;5022225;28;20536;-77
2022/04/14 04:49:39;;;;;;;9.23;5.47;;;;;;;7.65;100.00;96305.84;5019078;28;20148;-79
2022/04/14 04:52:05;;;;;;;9.33;5.73;;;;;;;7.58;100.00;96302.13;5037131;28;20033;-79
2022/04/14 04:54:31;;;;;;;10.03;6.00;;;;;;;7.64;100.00;96301.53;5007768;28;20029;-79
2022/04/14 04:56:56;;;;;;;8.47;5.23;;;;;;;7.61;100.00;96306.25;5021758;28;20040;-79
2022/04/14 04:59:22;;;;;;;10.27;5.73;;;;;;;7.69;100.00;96312.44;5021936;28;20026;-79
2022/04/14 05:01:48;;;;;;;9.60;5.50;;;;;;;7.72;100.00;96306.94;5021406;28;20034;-79
2022/04/14 05:04:13;;;;;;;10.67;5.93;;;;;;;7.78;100.00;96311.63;5051347;28;20067;-79
2022/04/14 05:06:39;;;;;;;8.93;5.37;;;;;;;7.84;100.00;96320.69;5045535;28;20061;-78
2022/04/14 05:09:06;;;;;;;9.73;5.77;;;;;;;7.99;100.00;96303.56;5024370;28;20619;-79
2022/04/14 05:11:32;;;;;;;10.33;7.33;;;;;;;7.90;100.00;96314.06;5043984;28;20029;-79
2022/04/14 05:13:58;;;;;;;11.43;7.30;;;;;;;7.92;100.00;96314.75;5035803;28;20359;-79
2022/04/14 05:16:23;;;;;;;12.17;7.33;;;;;;;8.16;100.00;96311.66;5036829;28;20043;-80
2022/04/14 05:18:50;;;;;;;11.43;7.63;;;;;;;8.32;100.00;96311.91;5062376;28;20087;-81
2022/04/14 05:21:16;;;;;;;8.90;6.53;;;;;;;8.47;100.00;96320.13;5041372;28;20037;-80
2022/04/14 05:23:42;;;;;;;11.37;5.90;;;;;;;8.69;100.00;96321.56;5045472;28;20026;-79
2022/04/14 05:26:08;;;;;;;9.43;6.33;;;;;;;8.84;100.00;96324.53;5014752;28;20040;-80
2022/04/14 05:28:34;;;;;;;10.00;6.23;;;;;;;8.91;100.00;96323.78;5029818;28;20404;-80
2022/04/14 05:31:00;;;;;;;10.13;6.27;;;;;;;9.13;100.00;96319.13;5045927;28;20078;-78
2022/04/14 05:33:26;;;;;;;10.70;6.30;;;;;;;9.24;100.00;96323.31;5028857;28;20049;-77
2022/04/14 05:35:52;;;;;;;10.37;5.07;;;;;;;9.09;100.00;96331.72;5027757;28;20036;-77
2022/04/14 05:38:17;;;;;;;10.60;6.00;;;;;;;8.89;100.00;96332.78;5009419;28;20060;-78
2022/04/14 05:40:45;;;;;;;9.47;6.07;;;;;;;8.92;100.00;96327.22;5051078;28;20021;-77
2022/04/14 05:43:18;;;;;;;13.33;6.47;;;;;;;8.93;100.00;96329.72;5061097;28;20037;-78
2022/04/14 05:45:47;;;;;;;13.93;6.43;;;;;;;9.05;100.00;96327.72;5025977;28;20032;-78
2022/04/14 05:48:14;;;;;;;11.23;6.03;;;;;;;9.27;100.00;96321.22;5004632;28;20041;-79
2022/04/14 05:50:47;;;;;;;13.33;6.93;;;;;;;9.18;100.00;96324.72;5029941;28;20037;-79
2022/04/14 05:53:12;;;;;;;11.32;6.03;;;;;;;9.23;100.00;96316.44;5028575;28;20037;-79
2022/04/14 05:55:40;;;;;;;10.83;5.80;;;;;;;9.23;100.00;96321.69;5012997;28;20044;-80
2022/04/14 05:58:07;;;;;;;11.80;6.13;;;;;;;9.85;100.00;96330.44;5036895;28;20033;-79
2022/04/14 06:00:35;;;;;;;12.70;6.37;;;;;;;10.40;100.00;96322.31;5033936;28;20029;-77
2022/04/14 06:03:02;;;;;;;11.30;5.93;;;;;;;10.71;100.00;96313.91;5027674;28;20040;-77
2022/04/14 06:05:31;;;;;;;9.73;6.43;;;;;;;11.07;100.00;96320.63;5046770;28;20158;-77
2022/04/14 06:07:57;;;;;;;9.80;5.83;;;;;;;11.35;100.00;96315.09;5032359;28;20032;-77
2022/04/14 06:10:24;;;;;;;8.80;6.23;;;;;;;11.54;100.00;96311.34;5028038;28;20025;-78
2022/04/14 06:12:50;;;;;;;13.60;5.77;;;;;;;11.64;100.00;96316.44;5026014;28;20044;-77
2022/04/14 06:15:17;;;;;;;13.93;7.03;;;;;;;11.95;100.00;96312.19;5019827;28;20453;-77
2022/04/14 06:17:43;;;;;;;11.03;5.90;;;;;;;12.32;100.00;96316.09;5018673;28;20025;-79
2022/04/14 06:20:13;;;;;;;11.40;7.07;;;;;;;12.23;100.00;96319.72;5029330;28;20039;-79
2022/04/14 06:22:44;;;;;;;13.03;8.00;;;;;;;12.71;100.00;96323.25;5009323;28;20043;-78
2022/04/14 06:25:13;;;;;;;12.33;6.90;;;;;;;13.05;98.16;96316.84;5028441;28;20439;-78
2022/04/14 06:27:50;;;;;;;15.07;6.83;;;;;;;12.91;99.16;96319.22;5025874;28;20029;-79
2022/04/14 06:30:17;;;;;;;12.97;7.20;;;;;;;12.83;100.00;96324.50;5051940;28;20111;-78
2022/04/14 06:32:58;;;;;;;14.90;7.20;;;;;;;13.17;97.30;96328.66;5042557;28;20028;-78
2022/04/14 06:35:25;;;;;;;11.67;7.27;;;;;;;13.49;96.03;96322.41;5014198;28;20032;-80
2022/04/14 06:37:50;;;;;;;17.03;7.67;;;;;;;13.76;97.16;96328.97;5028917;28;20037;-81
2022/04/14 06:40:16;;;;;;;15.43;6.77;;;;;;;13.66;95.70;96334.50;5029092;28;20453;-81
2022/04/14 06:42:42;;;;;;;12.33;7.73;;;;;;;13.93;91.80;96336.78;5016932;28;20028;-81
2022/04/14 06:45:08;;;;;;;14.43;7.90;;;;;;;13.85;94.91;96337.69;5015080;28;20112;-78
2022/04/14 06:47:34;;;;;;;15.07;8.70;;;;;;;13.98;94.78;96348.47;5020519;28;20036;-78
2022/04/14 06:50:00;;;;;;;15.33;8.90;;;;;;;14.70;90.00;96337.41;5015005;28;20444;-81
2022/04/14 06:52:26;;;;;;;22.03;9.33;;;;;;;14.29;93.91;96340.44;5029164;28;20037;-79
2022/04/14 06:54:51;;;;;;;17.87;9.97;;;;;;;14.64;91.50;96346.06;5029012;28;20094;-78
2022/04/14 06:57:18;;;;;;;17.50;9.83;;;;;;;14.64;91.84;96343.44;5028511;28;20025;-78
2022/04/14 06:59:44;;;;;;;18.53;10.60;;;;;;;14.70;92.44;96342.69;5033343;28;20037;-79
2022/04/14 07:02:10;;;;;;;19.50;10.03;;;;;;;15.03;90.48;96337.03;5046712;28;20044;-79
2022/04/14 07:04:36;;;;;;;16.83;9.73;;;;;;;15.33;88.41;96343.94;5028893;28;20029;-78
2022/04/14 07:07:02;;;;;;;14.73;10.10;;;;;;;15.90;84.11;96338.84;5017388;28;20029;-77
2022/04/14 07:09:32;;;;;;;20.43;14.23;;;;;;;16.05;85.60;96341.41;5016410;28;20045;-77
2022/04/14 07:11:59;;;;;;;23.00;12.27;;;;;;;16.24;83.52;96346.88;4996582;28;20040;-79
2022/04/14 07:14:30;;;;;;;16.60;10.33;;;;;;;16.56;83.15;96347.31;4999438;28;20037;-79
2022/04/14 07:16:57;;;;;;;13.20;9.77;;;;;;;16.73;79.89;96343.38;5026220;28;20037;-79
2022/04/14 07:19:23;;;;;;;16.13;10.20;;;;;;;16.43;81.21;96345.41;5053681;28;20033;-78
2022/04/14 07:21:48;;;;;;;18.87;10.33;;;;;;;16.97;78.92;96351.91;5027884;28;20152;-78
2022/04/14 07:24:14;;;;;;;17.47;9.37;;;;;;;17.38;76.57;96349.22;5008522;28;20133;-79
2022/04/14 07:26:40;;;;;;;19.60;10.80;;;;;;;17.13;74.85;96354.22;5052214;28;20025;-78
2022/04/14 07:29:06;;;;;;;15.13;9.18;;;;;;;16.83;78.28;96355.50;5030124;28;20038;-78
2022/04/14 07:31:32;;;;;;;15.70;9.07;;;;;;;17.16;74.55;96359.13;5034923;28;20037;-79
2022/04/14 07:34:01;;;;;;;13.35;9.32;;;;;;;17.56;73.66;96355.81;5018750;28;20045;-81
2022/04/14 07:36:26;;;;;;;15.18;9.35;;;;;;;17.55;72.06;96354.19;5039307;28;20028;-79
2022/04/14 07:38:52;;;;;;;12.98;9.38;;;;;;;17.42;72.03;96349.66;5023726;28;20424;-79
2022/04/14 07:41:18;;;;;;;13.07;9.23;;;;;;;18.14;69.99;96357.00;5023349;28;20044;-79
2022/04/14 07:43:44;;;;;;;15.98;9.65;;;;;;;17.82;69.67;96360.44;5023838;28;20146;-79
2022/04/14 07:46:09;;;;;;;20.98;9.38;;;;;;;19.03;65.40;96353.03;5020611;28;20497;-80
2022/04/14 07:48:35;;;;;;;20.58;9.98;;;;;;;18.84;64.72;96354.72;5038426;28;20044;-79
2022/04/14 07:51:03;;;;;;;14.20;9.48;;;;;;;18.31;66.50;96353.94;5023028;28;20154;-79
2022/04/14 07:53:30;;;;;;;19.35;8.98;;;;;;;18.60;65.00;96358.00;5041783;28;20037;-79
2022/04/14 07:55:56;;;;;;;16.15;9.77;;;;;;;18.79;64.83;96361.72;5040158;28;20041;-80
2022/04/14 07:58:22;;;;;;;19.20;9.55;;;;;;;19.10;63.66;96366.34;5039235;28;20512;-80
2022/04/14 08:00:50;;;;;;;12.65;8.95;;;;;;;19.32;60.48;96364.25;5020017;28;20030;-80
2022/04/14 08:03:16;;;;;;;18.30;9.23;;;;;;;19.64;61.34;96361.66;5046128;28;20036;-79
2022/04/14 08:05:46;;;;;;;16.73;10.05;;;;;;;19.68;59.90;96363.69;5042075;28;20044;-80
2022/04/14 08:08:16;;;;;;;16.48;9.27;;;;;;;20.22;56.88;96353.50;5024239;28;20036;-82
2022/04/14 08:10:45;;;;;;;18.35;10.38;;;;;;;19.86;58.09;96363.00;5044712;28;20033;-79
2022/04/14 08:13:12;;;;;;;13.55;10.20;;;;;;;19.77;58.69;96372.25;5006671;28;20059;-80
2022/04/14 08:15:39;;;;;;;20.88;10.45;;;;;;;20.48;56.49;96361.28;5014335;28;20029;-81
2022/04/14 08:18:08;;;;;;;16.05;9.75;;;;;;;20.88;55.00;96360.16;5021126;28;20087;-78
2022/04/14 08:20:35;;;;;;;13.80;8.80;;;;;;;21.32;54.64;96360.91;5022881;28;20037;-81
2022/04/14 08:23:03;;;;;;;14.30;9.85;;;;;;;20.38;55.45;96360.16;5029587;28;20094;-80
2022/04/14 08:25:31;;;;;;;16.95;9.20;;;;;;;21.25;52.03;96363.66;5024698;28;20028;-79
2022/04/14 08:27:58;;;;;;;13.93;9.25;;;;;;;21.22;52.52;96355.25;5031588;28;20442;-79
2022/04/14 08:30:25;;;;;;;18.77;9.23;;;;;;;21.12;52.50;96358.44;5019915;28;20533;-78
2022/04/14 08:32:52;;;;;;;13.40;9.93;;;;;;;21.69;52.85;96364.38;5027104;28;20140;-79
2022/04/14 08:35:19;;;;;;;13.90;8.85;;;;;;;22.57;49.18;96357.56;5031112;28;20121;-79
2022/04/14 08:37:46;;;;;;;13.55;8.45;;;;;;;21.33;51.33;96374.06;5049592;28;20031;-80
2022/04/14 08:40:14;;;;;;;16.33;8.77;;;;;;;21.10;51.88;96379.28;5030268;28;20032;-80
2022/04/14 08:42:42;;;;;;;13.50;9.63;;;;;;;21.15;51.14;96372.19;5022360;28;20712;-78
2022/04/14 08:45:13;;;;;;;12.55;8.23;;;;;;;21.88;50.70;96368.66;5021941;28;20033;-80
2022/04/14 08:47:39;;;;;;;14.25;8.88;;;;;;;21.65;49.65;96376.59;5028748;28;20365;-81
2022/04/14 08:50:15;;;;;;;17.98;9.63;;;;;;;21.74;49.63;96369.88;5053256;28;20021;-81
2022/04/14 08:52:40;;;;;;;17.77;9.95;;;;;;;22.13;50.55;96379.25;5033179;28;20057;-79
2022/04/14 08:55:09;;;;;;;12.02;9.05;;;;;;;21.78;49.84;96380.97;5021268;28;20040;-79
2022/04/14 08:57:35;;;;;;;15.23;9.80;;;;;;;22.11;51.41;96377.81;5027514;28;20032;-80
2022/04/14 09:00:02;;;;;;;12.70;8.75;;;;;;;21.84;49.19;96374.72;5051524;28;20028;-82
2022/04/14 09:02:29;;;;;;;12.07;7.45;;;;;;;22.18;48.99;96383.13;5018429;28;20032;-82
2022/04/14 09:04:57;;;;;;;15.95;9.00;;;;;;;22.15;50.13;96379.03;5047144;28;20025;-81
2022/04/14 09:07:25;;;;;;;15.82;9.10;;;;;;;21.96;48.68;96385.44;5020633;28;20064;-79
2022/04/14 09:09:51;;;;;;;11.60;8.40;;;;;;;22.76;48.12;96377.84;5037797;28;20036;-80
2022/04/14 09:12:17;;;;;;;15.20;10.48;;;;;;;22.63;48.48;96378.06;5018755;28;20084;-80
2022/04/14 09:14:43;;;;;;;15.45;8.55;;;;;;;22.70;46.48;96378.78;5038854;28;20036;-79
2022/04/14 09:17:09;;;;;;;13.93;8.73;;;;;;;22.35;47.51;96376.84;5020805;28;20029;-79
2022/04/14 09:19:37;;;;;;;14.73;7.80;;;;;;;23.46;44.88;96378.84;5034999;28;20048;-78
2022/04/14 09:22:08;;;;;;;10.25;6.85;;;;;;;23.65;43.63;96391.06;5021134;28;21398;-80
2022/04/14 09:24:49;;;;;;;10.95;8.35;;;;;;;22.23;46.78;96386.75;5028615;28;20085;-78
2022/04/14 09:27:31;;;;;;;14.55;8.65;;;;;;;23.03;43.93;96380.09;5003581;28;20086;-79
2022/04/14 09:30:03;;;;;;;10.40;7.28;;;;;;;23.48;44.21;96376.75;5006402;28;20244;-78
2022/04/14 09:32:34;;;;;;;14.77;7.95;;;;;;;22.45;47.04;96378.16;5019367;28;20038;-78
2022/04/14 09:35:23;;;;;;;13.32;7.97;;;;;;;23.56;42.86;96386.31;5019634;28;20035;-78
2022/04/14 09:38:10;;;;;;;14.27;8.98;;;;;;;23.58;43.27;96378.84;5036237;28;20117;-80
2022/04/14 09:40:37;;;;;;;21.85;12.95;;;;;;;23.85;42.48;96376.44;5020227;28;20110;-78
2022/04/14 09:43:05;;;;;;;17.95;11.80;;;;;;;24.12;42.62;96369.41;5003547;28;20033;-79
2022/04/14 09:45:32;;;;;;;12.52;7.65;;;;;;;24.07;44.52;96374.69;5006594;28;20060;-81
2022/04/14 09:48:07;;;;;;;10.10;6.55;;;;;;;24.68;40.46;96373.09;5012450;28;20469;-82
2022/04/14 09:50:40;;;;;;;10.52;6.13;;;;;;;24.96;37.78;96370.53;5041219;28;20035;-79
2022/04/14 09:53:08;;;;;;;15.45;8.68;;;;;;;24.88;40.59;96377.97;5016884;28;20422;-80
2022/04/14 09:55:39;;;;;;;12.43;8.88;;;;;;;24.04;42.77;96379.72;5003046;28;20037;-77
2022/04/14 09:58:17;;;;;;;11.50;7.57;;;;;;;24.34;42.27;96371.38;5038821;28;20036;-77
2022/04/14 10:00:50;;;;;;;11.98;7.50;;;;;;;24.38;40.25;96373.38;5023771;28;20171;-76
2022/04/14 10:03:19;;;;;;;9.13;6.22;;;;;;;24.34;40.34;96360.63;5041168;28;20038;-75
2022/04/14 10:05:46;;;;;;;12.02;6.28;;;;;;;24.82;39.37;96356.59;5025929;28;20034;-76
2022/04/14 10:08:13;;;;;;;11.57;6.10;;;;;;;26.21;37.86;96357.25;5030806;28;20041;-78
2022/04/14 10:10:45;;;;;;;9.75;5.78;;;;;;;25.86;37.12;96356.66;5021228;28;20036;-77
2022/04/14 10:13:13;;;;;;;13.38;7.15;;;;;;;26.03;38.63;96356.56;5019012;28;20102;-76
2022/04/14 10:15:41;;;;;;;10.07;7.60;;;;;;;25.09;40.03;96354.84;5032190;28;20091;-78
2022/04/14 10:18:09;;;;;;;12.23;6.93;;;;;;;25.49;39.62;96356.47;5023239;28;20063;-76
2022/04/14 10:20:37;;;;;;;14.20;7.82;;;;;;;24.88;40.91;96361.81;5022376;28;20032;-77
2022/04/14 10:23:03;;;;;;;13.20;6.47;;;;;;;24.07;42.17;96361.25;5035352;28;20111;-77
2022/04/14 10:25:30;;;;;;;18.10;7.35;;;;;;;25.24;39.94;96358.81;5019509;28;20052;-77
2022/04/14 10:27:59;;;;;;;11.88;7.53;;;;;;;25.28;40.78;96357.25;5039962;28;20036;-76
2022/04/14 10:30:27;;;;;;;10.50;7.13;;;;;;;25.23;42.25;96360.72;5029888;28;20047;-76
2022/04/14 10:32:56;;;;;;;13.77;8.32;;;;;;;25.32;40.08;96348.44;5027256;28;20024;-76
2022/04/14 10:35:27;;;;;;;12.23;7.65;;;;;;;24.57;41.12;96360.50;5021044;28;20045;-79
2022/04/14 10:38:01;;;;;;;12.77;8.30;;;;;;;24.21;42.56;96367.13;5003723;28;20033;-78
2022/04/14 10:40:29;;;;;;;11.40;7.63;;;;;;;24.73;41.91;96355.38;5040535;28;20497;-77
2022/04/14 10:42:56;;;;;;;10.88;8.02;;;;;;;24.34;41.76;96355.25;5016767;28;20038;-78
2022/04/14 10:45:23;;;;;;;19.15;8.80;;;;;;;24.17;42.68;96360.63;5036255;28;20776;-78
2022/04/14 10:47:54;;;;;;;11.50;7.10;;;;;;;24.30;42.05;96360.31;5018185;28;20887;-77
2022/04/14 10:50:47;;;;;;;14.73;7.72;;;;;;;24.33;43.17;96361.72;5021413;28;20060;-77
2022/04/14 10:53:19;;;;;;;11.98;7.68;;;;;;;23.87;42.22;96358.19;5014597;28;20045;-78
2022/04/14 10:55:46;;;;;;;10.23;6.75;;;;;;;24.76;41.84;96349.53;5041625;28;20478;-78
2022/04/14 10:58:35;;;;;;;9.50;7.15;;;;;;;25.17;40.81;96356.31;5005977;28;20631;-78
2022/04/14 11:01:01;;;;;;;15.05;7.72;;;;;;;24.22;42.26;96358.84;5042866;28;20041;-78
2022/04/14 11:03:49;;;;;;;11.57;7.38;;;;;;;24.10;42.83;96344.66;5033753;28;20021;-78
2022/04/14 11:06:40;;;;;;;10.63;6.70;;;;;;;24.72;41.57;96346.50;5029574;28;20057;-78
2022/04/14 11:09:06;;;;;;;13.55;6.10;;;;;;;24.42;41.83;96336.09;5027461;28;20032;-78
2022/04/14 11:11:58;;;;;;;13.63;6.80;;;;;;;24.73;42.05;96341.94;5044515;28;20453;-80
2022/04/14 11:14:25;;;;;;;9.90;5.35;;;;;;;25.34;37.49;96340.13;5017752;28;20052;-78
2022/04/14 11:16:51;;;;;;;9.40;4.80;;;;;;;26.70;36.01;96332.88;5052195;28;20040;-79
2022/04/14 11:19:20;;;;;;;10.95;5.13;;;;;;;26.29;36.58;96337.91;5010700;28;20033;-80
2022/04/14 11:22:06;;;;;;;8.77;5.10;;;;;;;26.18;37.59;96342.41;5017057;28;20037;-80
2022/04/14 11:24:40;;;;;;;9.18;6.32;;;;;;;25.61;38.56;96340.16;5013903;28;20063;-80
2022/04/14 11:27:26;;;;;;;16.08;6.25;;;;;;;25.90;39.34;96330.00;5023489;28;20029;-80
2022/04/14 11:29:57;;;;;;;7.38;4.68;;;;;;;25.70;38.38;96337.84;5034820;28;20104;-79